createdAt,value
2017-11-24T00:02:25.073Z,96905.11
2017-11-24T00:04:51.222Z,96902.57
2017-11-24T00:07:17.411Z,96909.78
2017-11-24T00:09:43.519Z,96908.22
2017-11-24T00:12:10.007Z,96909.67
2017-11-24T00:14:36.160Z,96912.45
2017-11-24T00:17:02.305Z,96910.76
2017-11-24T00:19:28.403Z,96903.40
2017-11-24T00:21:54.615Z,96903.66
2017-11-24T00:24:20.752Z,96898.02
2017-11-24T00:26:46.791Z,96908.02
2017-11-24T00:29:12.849Z,96916.47
2017-11-24T00:31:39.057Z,96907.28
2017-11-24T00:34:05.279Z,96900.54
2017-11-24T00:36:31.473Z,96904.42
2017-11-24T00:38:57.539Z,96905.25
2017-11-24T00:41:23.554Z,96903.98
2017-11-24T00:43:49.702Z,96902.03
2017-11-24T00:46:15.783Z,96905.05
2017-11-24T00:48:41.786Z,96901.02
2017-11-24T00:51:07.889Z,96905.22
2017-11-24T00:53:34.041Z,96895.59
2017-11-24T00:56:00.352Z,96897.59
2017-11-24T00:58:26.451Z,96899.28
2017-11-24T01:00:52.560Z,96894.86
2017-11-24T01:03:18.690Z,96895.05
2017-11-24T01:05:44.781Z,96892.86
2017-11-24T01:08:10.975Z,96898.73
2017-11-24T01:10:37.144Z,96893.05
2017-11-24T01:13:03.269Z,96891.41
2017-11-24T01:15:29.407Z,96899.91
2017-11-24T01:17:55.426Z,96895.91
2017-11-24T01:20:21.539Z,96895.55
2017-11-24T01:22:47.620Z,96901.00
2017-11-24T01:25:13.754Z,96897.12
2017-11-24T01:27:40.242Z,96897.98
2017-11-24T01:30:06.453Z,96898.45
2017-11-24T01:32:32.602Z,96892.41
2017-11-24T01:34:58.795Z,96899.50
2017-11-24T01:37:24.863Z,96901.23
2017-11-24T01:39:51.068Z,96902.63
2017-11-24T01:42:17.197Z,96896.45
2017-11-24T01:44:43.377Z,96894.58
2017-11-24T01:47:09.876Z,96896.77
2017-11-24T01:49:35.957Z,96893.13
2017-11-24T01:52:02.006Z,96897.19
2017-11-24T01:54:28.042Z,96890.11
2017-11-24T01:56:54.177Z,96896.29
2017-11-24T01:59:20.337Z,96891.08
2017-11-24T02:01:46.421Z,96893.75
2017-11-24T02:04:12.528Z,96887.28
2017-11-24T02:06:38.865Z,96887.75
2017-11-24T02:09:04.993Z,96886.06
2017-11-24T02:11:31.101Z,96889.20
2017-11-24T02:13:57.189Z,96889.34
2017-11-24T02:16:23.384Z,96886.17
2017-11-24T02:18:49.558Z,96884.87
2017-11-24T02:21:16.003Z,96885.83
2017-11-24T02:23:42.201Z,96883.05
2017-11-24T02:26:08.359Z,96879.94
2017-11-24T02:28:34.563Z,96873.77
2017-11-24T02:31:00.677Z,96871.17
2017-11-24T02:33:26.895Z,96860.55
2017-11-24T02:35:52.973Z,96851.31
2017-11-24T02:38:19.130Z,96861.34
2017-11-24T02:40:45.288Z,96862.32
2017-11-24T02:43:11.451Z,96856.44
2017-11-24T02:45:37.734Z,96853.54
2017-11-24T02:48:03.885Z,96853.80
2017-11-24T02:50:29.955Z,96843.83
2017-11-24T02:52:56.117Z,96851.02
2017-11-24T02:55:22.647Z,96843.45
2017-11-24T02:57:48.822Z,96835.60
2017-11-24T03:00:14.912Z,96834.93
2017-11-24T03:02:41.102Z,96835.66
2017-11-24T03:05:07.298Z,96847.22
2017-11-24T03:07:33.509Z,96837.24
2017-11-24T03:09:59.812Z,96841.12
2017-11-24T03:12:26.080Z,96846.83
2017-11-24T03:14:52.380Z,96843.84
2017-11-24T03:17:18.557Z,96846.97
2017-11-24T03:19:44.770Z,96849.33
2017-11-24T03:22:10.920Z,96854.64
2017-11-24T03:24:37.137Z,96854.75
2017-11-24T03:27:03.391Z,96844.27
2017-11-24T03:29:29.527Z,96849.08
2017-11-24T03:31:55.602Z,96837.23
2017-11-24T03:34:21.763Z,96844.40
2017-11-24T03:36:48.404Z,96844.53
2017-11-24T03:39:14.494Z,96843.91
2017-11-24T03:41:40.572Z,96838.73
2017-11-24T03:44:06.712Z,96829.22
2017-11-24T03:46:32.876Z,96819.53
2017-11-24T03:48:59.170Z,96822.64
2017-11-24T03:51:25.319Z,96828.03
2017-11-24T03:53:51.349Z,96828.30
2017-11-24T03:56:17.524Z,96827.23
2017-11-24T03:58:43.697Z,96828.56
2017-11-24T04:01:10.153Z,96827.59
2017-11-24T04:03:36.233Z,96831.49
2017-11-24T04:06:02.498Z,96825.19
2017-11-24T04:08:28.589Z,96826.70
2017-11-24T04:10:54.869Z,96832.34
2017-11-24T04:13:21.060Z,96833.34
2017-11-24T04:15:47.170Z,96828.41
2017-11-24T04:18:13.413Z,96832.88
2017-11-24T04:20:39.499Z,96829.23
2017-11-24T04:23:05.565Z,96827.06
2017-11-24T04:25:31.900Z,96827.83
2017-11-24T04:27:58.186Z,96829.89
2017-11-24T04:30:24.564Z,96837.48
2017-11-24T04:32:50.711Z,96848.74
2017-11-24T04:35:16.839Z,96842.15
2017-11-24T04:37:43.013Z,96833.30
2017-11-24T04:40:09.171Z,96835.72
2017-11-24T04:42:35.493Z,96843.05
2017-11-24T04:45:01.522Z,96838.72
2017-11-24T04:47:27.642Z,96833.47
2017-11-24T04:49:53.782Z,96840.43
2017-11-24T04:52:20.007Z,96838.64
2017-11-24T04:54:46.155Z,96834.84
2017-11-24T04:57:12.161Z,96831.99
2017-11-24T04:59:38.221Z,96833.84
2017-11-24T05:02:04.815Z,96836.43
2017-11-24T05:04:31.027Z,96832.36
2017-11-24T05:06:57.954Z,96828.42
2017-11-24T05:09:24.079Z,96830.97
2017-11-24T05:11:50.290Z,96825.77
2017-11-24T05:14:16.487Z,96824.02
2017-11-24T05:16:42.702Z,96823.62
2017-11-24T05:19:08.964Z,96824.80
2017-11-24T05:21:35.177Z,96832.22
2017-11-24T05:24:01.384Z,96837.69
2017-11-24T05:26:27.465Z,96829.18
2017-11-24T05:28:53.626Z,96827.16
2017-11-24T05:31:19.707Z,96822.78
2017-11-24T05:33:45.786Z,96824.11
2017-11-24T05:36:11.836Z,96815.90
2017-11-24T05:38:37.939Z,96819.14
2017-11-24T05:41:04.231Z,96825.16
2017-11-24T05:43:30.229Z,96815.03
2017-11-24T05:45:56.341Z,96821.64
2017-11-24T05:48:22.523Z,96818.52
2017-11-24T05:50:48.720Z,96816.33
2017-11-24T05:53:15.187Z,96805.95
2017-11-24T05:55:41.220Z,96802.38
2017-11-24T05:58:07.719Z,96805.10
2017-11-24T06:00:33.924Z,96804.16
2017-11-24T06:03:07.526Z,96805.05
2017-11-24T06:05:33.874Z,96807.27
2017-11-24T06:08:00.024Z,96813.82
2017-11-24T06:10:26.903Z,96810.28
2017-11-24T06:12:53.370Z,96808.53
2017-11-24T06:15:20.427Z,96802.94
2017-11-24T06:17:48.392Z,96803.12
2017-11-24T06:20:17.598Z,96805.56
2017-11-24T06:22:43.757Z,96810.02
2017-11-24T06:25:09.945Z,96808.70
2017-11-24T06:27:36.045Z,96815.87
2017-11-24T06:30:02.161Z,96821.66
2017-11-24T06:32:28.242Z,96823.62
2017-11-24T06:34:54.369Z,96835.27
2017-11-24T06:37:20.475Z,96855.06
2017-11-24T06:39:46.651Z,96867.45
2017-11-24T06:42:12.680Z,96872.28
2017-11-24T06:47:11.645Z,96883.10
2017-11-24T06:49:37.713Z,96887.25
2017-11-24T06:52:03.771Z,96885.16
2017-11-24T06:54:32.049Z,96886.63
2017-11-24T06:56:58.111Z,96877.58
2017-11-24T06:59:24.335Z,96884.23
2017-11-24T07:01:50.462Z,96883.48
2017-11-24T07:04:16.608Z,96886.72
2017-11-24T07:06:42.776Z,96879.73
2017-11-24T07:09:09.052Z,96885.30
2017-11-24T07:11:36.050Z,96887.48
2017-11-24T07:14:02.411Z,96886.47
2017-11-24T07:16:29.031Z,96879.98
2017-11-24T07:18:55.143Z,96884.70
2017-11-24T07:21:21.377Z,96884.34
2017-11-24T07:23:47.575Z,96881.53
2017-11-24T07:26:13.732Z,96880.23
2017-11-24T07:28:39.853Z,96878.93
2017-11-24T07:31:06.533Z,96876.47
2017-11-24T07:33:38.388Z,96870.25
2017-11-24T07:36:13.538Z,96875.31
2017-11-24T07:38:43.210Z,96880.16
2017-11-24T07:41:14.603Z,96880.42
2017-11-24T07:43:47.360Z,96889.03
2017-11-24T07:46:15.013Z,96884.11
2017-11-24T07:48:41.429Z,96884.08
2017-11-24T07:51:07.988Z,96882.50
2017-11-24T07:53:34.521Z,96893.02
2017-11-24T07:56:01.410Z,96880.41
2017-11-24T07:58:30.053Z,96877.11
2017-11-24T08:00:57.447Z,96873.41
2017-11-24T08:03:24.922Z,96874.69
2017-11-24T08:05:53.525Z,96871.08
2017-11-24T08:08:29.084Z,96868.71
2017-11-24T08:11:01.144Z,96869.13
2017-11-24T08:13:28.415Z,96874.17
2017-11-24T08:15:55.688Z,96874.05
2017-11-24T08:18:24.520Z,96875.65
2017-11-24T08:20:51.774Z,96877.09
2017-11-24T08:23:19.616Z,96874.75
2017-11-24T08:25:48.514Z,96872.64
2017-11-24T08:28:20.671Z,96873.30
2017-11-24T08:30:50.153Z,96880.31
2017-11-24T08:33:17.650Z,96877.22
2017-11-24T08:35:44.295Z,96875.58
2017-11-24T08:38:13.312Z,96873.88
2017-11-24T08:40:40.836Z,96872.23
2017-11-24T08:43:09.467Z,96873.95
2017-11-24T08:45:36.695Z,96876.44
2017-11-24T09:02:01.964Z,96875.44
2017-11-24T09:04:30.468Z,96889.13
2017-11-24T09:06:57.534Z,96873.98
2017-11-24T09:09:38.251Z,96888.09
2017-11-24T09:12:06.348Z,96896.97
2017-11-24T09:14:34.129Z,96892.29
2017-11-24T09:17:05.435Z,96881.75
2017-11-24T09:19:35.163Z,96892.67
2017-11-24T09:22:02.676Z,96891.19
2017-11-24T09:24:31.504Z,96883.73
2017-11-24T09:27:00.528Z,96876.77
2017-11-24T09:29:28.114Z,96876.64
2017-11-24T09:31:55.529Z,96869.52
2017-11-24T09:36:57.004Z,96865.96
2017-11-24T09:39:24.265Z,96872.36
2017-11-24T09:41:52.345Z,96869.77
2017-11-24T09:44:19.478Z,96863.66
2017-11-24T09:46:46.947Z,96869.12
2017-11-24T09:49:18.981Z,96869.19
2017-11-24T09:51:45.606Z,96872.26
2017-11-24T09:54:12.120Z,96871.31
2017-11-24T09:56:38.490Z,96864.78
2017-11-24T09:59:04.912Z,96863.14
2017-11-24T10:01:32.367Z,96855.94
2017-11-24T10:03:58.958Z,96862.78
2017-11-24T10:06:25.376Z,96856.69
2017-11-24T10:08:51.814Z,96855.93
2017-11-24T10:11:18.211Z,96848.92
2017-11-24T10:13:44.899Z,96844.57
2017-11-24T10:16:11.220Z,96837.33
2017-11-24T10:18:37.632Z,96838.06
2017-11-24T10:21:10.122Z,96830.17
2017-11-24T10:23:41.334Z,96823.58
2017-11-24T10:26:12.318Z,96815.34
2017-11-24T10:28:39.724Z,96812.12
2017-11-24T10:31:08.330Z,96806.84
2017-11-24T10:33:37.008Z,96805.91
2017-11-24T10:36:15.642Z,96796.13
2017-11-24T10:38:43.865Z,96790.16
2017-11-24T10:41:12.201Z,96787.23
2017-11-24T10:43:39.438Z,96795.40
2017-11-24T10:46:09.039Z,96793.20
2017-11-24T10:48:37.342Z,96795.17
2017-11-24T10:51:04.315Z,96786.09
2017-11-24T10:53:30.897Z,96782.78
2017-11-24T10:55:57.114Z,96780.23
2017-11-24T10:58:23.596Z,96778.70
2017-11-24T11:00:49.842Z,96777.27
2017-11-24T11:03:16.233Z,96791.70
2017-11-24T11:08:15.989Z,96785.72
2017-11-24T11:10:42.436Z,96790.54
2017-11-24T11:13:08.871Z,96799.72
2017-11-24T11:15:35.443Z,96803.27
2017-11-24T11:18:01.957Z,96801.00
2017-11-24T11:20:28.344Z,96814.14
2017-11-24T11:22:54.805Z,96804.79
2017-11-24T11:25:22.179Z,96798.70
2017-11-24T11:27:52.892Z,96791.24
2017-11-24T11:30:36.662Z,96791.24
2017-11-24T11:33:09.028Z,96789.83
2017-11-24T11:38:20.612Z,96791.47
2017-11-24T11:40:55.716Z,96786.55
2017-11-24T11:43:33.474Z,96780.94
2017-11-24T11:46:04.921Z,96772.95
2017-11-24T11:51:13.264Z,96782.48
2017-11-24T11:53:45.372Z,96779.74
2017-11-24T11:56:12.226Z,96777.27
2017-11-24T11:58:43.372Z,96770.84
2017-11-24T12:01:10.846Z,96768.84
2017-11-24T12:03:56.808Z,96772.17
2017-11-24T12:06:38.462Z,96766.61
2017-11-24T12:09:05.651Z,96760.19
2017-11-24T12:11:32.909Z,96768.77
2017-11-24T12:13:59.126Z,96770.05
2017-11-24T12:16:29.946Z,96763.70
2017-11-24T12:19:11.842Z,96763.88
2017-11-24T12:21:48.860Z,96767.12
2017-11-24T12:24:19.511Z,96766.51
2017-11-24T12:26:45.875Z,96753.42
2017-11-24T12:29:20.058Z,96743.97
2017-11-24T12:31:47.909Z,96747.66
2017-11-24T12:34:16.089Z,96748.23
2017-11-24T12:36:46.179Z,96746.09
2017-11-24T12:39:12.716Z,96746.06
2017-11-24T12:44:18.766Z,96743.34
2017-11-24T12:46:46.091Z,96745.09
2017-11-24T12:49:13.086Z,96751.92
2017-11-24T12:54:18.358Z,96749.08
2017-11-24T12:56:46.860Z,96745.47
2017-11-24T12:59:13.967Z,96736.60
2017-11-24T13:01:41.775Z,96734.97
2017-11-24T13:04:09.442Z,96740.72
2017-11-24T13:06:38.039Z,96750.33
2017-11-24T13:09:06.093Z,96743.03
2017-11-24T13:11:34.727Z,96740.38
2017-11-24T13:14:01.199Z,96743.75
2017-11-24T13:16:34.360Z,96739.20
2017-11-24T13:19:02.376Z,96743.12
2017-11-24T13:21:33.716Z,96745.82
2017-11-24T13:24:00.256Z,96741.45
2017-11-24T13:26:29.576Z,96742.73
2017-11-24T13:29:00.453Z,96742.77
2017-11-24T13:31:28.384Z,96749.13
2017-11-24T13:33:54.953Z,96745.99
2017-11-24T13:36:22.828Z,96739.97
2017-11-24T13:38:49.475Z,96741.59
2017-11-24T13:41:20.115Z,96738.84
2017-11-24T13:43:47.393Z,96740.30
2017-11-24T13:46:15.720Z,96737.05
2017-11-24T13:48:42.793Z,96750.61
2017-11-24T13:51:09.432Z,96749.70
2017-11-24T13:53:36.585Z,96758.02
2017-11-24T13:56:04.155Z,96758.66
2017-11-24T13:58:36.721Z,96756.92
2017-11-24T14:01:03.221Z,96765.39
2017-11-24T14:03:30.682Z,96764.05
2017-11-24T14:05:58.469Z,96762.32
2017-11-24T14:08:25.518Z,96759.80
2017-11-24T14:10:54.025Z,96759.41
2017-11-24T14:13:28.679Z,96761.30
2017-11-24T14:15:54.975Z,96758.71
2017-11-24T14:18:21.747Z,96753.71
2017-11-24T14:20:48.320Z,96754.83
2017-11-24T14:23:21.340Z,96762.55
2017-11-24T14:25:49.113Z,96769.98
2017-11-24T14:28:16.772Z,96767.72
2017-11-24T14:30:43.192Z,96763.95
2017-11-24T14:33:09.808Z,96768.42
2017-11-24T14:35:36.239Z,96769.11
2017-11-24T14:38:02.843Z,96765.33
2017-11-24T14:40:29.875Z,96760.38
2017-11-24T14:42:56.864Z,96763.99
2017-11-24T14:45:23.418Z,96770.27
2017-11-24T14:47:51.619Z,96773.98
2017-11-24T14:50:20.321Z,96778.48
2017-11-24T14:52:52.141Z,96776.51
2017-11-24T14:55:18.609Z,96785.59
2017-11-24T14:57:48.349Z,96783.22
2017-11-24T15:00:36.225Z,96778.77
2017-11-24T15:03:11.181Z,96780.55
2017-11-24T15:08:14.871Z,96781.56
2017-11-24T15:10:44.991Z,96775.02
2017-11-24T15:13:13.759Z,96770.91
2017-11-24T15:18:45.607Z,96775.66
2017-11-24T15:21:15.258Z,96770.88
2017-11-24T15:23:43.837Z,96774.91
2017-11-24T15:28:47.462Z,96770.85
2017-11-24T15:31:24.281Z,96768.50
2017-11-24T15:33:55.674Z,96767.17
2017-11-24T15:36:23.651Z,96759.70
2017-11-24T15:38:53.306Z,96756.33
2017-11-24T15:43:55.494Z,96756.08
2017-11-24T15:46:24.278Z,96755.26
2017-11-24T15:48:53.632Z,96757.27
2017-11-24T15:51:24.031Z,96751.58
2017-11-24T15:53:56.247Z,96758.37
2017-11-24T15:56:27.257Z,96750.27
2017-11-24T16:01:29.528Z,96759.97
2017-11-24T16:03:59.918Z,96748.86
2017-11-24T16:06:29.337Z,96748.00
2017-11-24T16:08:58.173Z,96753.81
2017-11-24T16:11:25.328Z,96752.56
2017-11-24T16:13:52.205Z,96753.60
2017-11-24T16:16:20.115Z,96745.27
2017-11-24T16:18:46.884Z,96750.80
2017-11-24T16:21:14.014Z,96745.61
2017-11-24T16:23:44.770Z,96743.20
2017-11-24T16:26:11.751Z,96742.89
2017-11-24T16:28:38.715Z,96744.59
2017-11-24T16:31:05.669Z,96742.00
2017-11-24T16:33:32.446Z,96741.15
2017-11-24T16:35:59.328Z,96737.64
2017-11-24T16:38:26.140Z,96737.11
2017-11-24T16:40:57.493Z,96745.80
2017-11-24T16:43:24.756Z,96742.69
2017-11-24T16:45:53.130Z,96736.00
2017-11-24T16:48:34.293Z,96733.46
2017-11-24T16:51:01.268Z,96731.27
2017-11-24T16:53:28.263Z,96734.03
2017-11-24T16:55:55.720Z,96731.49
2017-11-24T16:58:22.844Z,96733.83
2017-11-24T17:00:50.580Z,96738.27
2017-11-24T17:03:17.407Z,96738.19
2017-11-24T17:05:44.396Z,96743.62
2017-11-24T17:08:11.100Z,96740.95
2017-11-24T17:10:37.655Z,96740.95
2017-11-24T17:13:04.595Z,96736.02
2017-11-24T17:15:31.595Z,96731.02
2017-11-24T17:17:58.059Z,96735.45
2017-11-24T17:20:24.971Z,96734.89
2017-11-24T17:22:53.005Z,96734.94
2017-11-24T17:25:20.555Z,96738.13
2017-11-24T17:27:49.337Z,96734.83
2017-11-24T17:30:17.007Z,96735.05
2017-11-24T17:32:43.881Z,96734.86
2017-11-24T17:35:10.623Z,96741.00
2017-11-24T17:37:38.648Z,96750.25
2017-11-24T17:42:41.357Z,96749.65
2017-11-24T17:45:08.309Z,96742.41
2017-11-24T17:47:35.891Z,96752.69
2017-11-24T17:50:02.859Z,96746.34
2017-11-24T17:52:30.941Z,96749.02
2017-11-24T17:54:59.281Z,96750.53
2017-11-24T17:57:26.412Z,96754.11
2017-11-24T17:59:58.151Z,96753.20
2017-11-24T18:05:04.680Z,96742.62
2017-11-24T18:07:34.905Z,96747.88
2017-11-24T18:10:03.883Z,96748.63
2017-11-24T18:15:04.751Z,96753.00
2017-11-24T18:17:32.854Z,96751.80
2017-11-24T18:25:22.864Z,96756.14
2017-11-24T18:30:43.291Z,96761.63
2017-11-24T18:33:17.296Z,96771.22
2017-11-24T18:35:44.934Z,96778.82
2017-11-24T18:38:11.727Z,96772.81
2017-11-24T18:40:38.640Z,96781.03
2017-11-24T18:43:05.074Z,96775.23
2017-11-24T18:45:31.748Z,96777.29
2017-11-24T18:47:58.350Z,96774.61
2017-11-24T18:50:24.704Z,96770.26
2017-11-24T18:52:51.251Z,96778.68
2017-11-24T18:55:17.728Z,96783.33
2017-11-24T18:57:45.019Z,96778.30
2017-11-24T19:00:11.521Z,96781.72
2017-11-24T19:02:40.320Z,96785.48
2017-11-24T19:07:43.929Z,96791.14
2017-11-24T19:10:11.098Z,96795.30
2017-11-24T19:12:38.491Z,96797.75
2017-11-24T19:15:11.770Z,96797.53
2017-11-24T19:17:38.415Z,96804.48
2017-11-24T19:20:05.056Z,96808.55
2017-11-24T19:22:31.473Z,96804.80
2017-11-24T19:24:58.550Z,96806.33
2017-11-24T19:27:24.980Z,96800.35
2017-11-24T19:29:51.695Z,96806.30
2017-11-24T19:32:18.309Z,96804.83
2017-11-24T19:34:44.702Z,96809.09
2017-11-24T19:37:11.562Z,96804.51
2017-11-24T19:39:37.863Z,96810.38
2017-11-24T19:42:04.412Z,96807.76
2017-11-24T19:44:30.925Z,96808.93
2017-11-24T19:46:57.405Z,96809.64
2017-11-24T19:49:24.148Z,96821.06
2017-11-24T19:51:50.635Z,96816.02
2017-11-24T19:54:16.961Z,96819.55
2017-11-24T19:56:43.442Z,96822.54
2017-11-24T19:59:09.870Z,96821.11
2017-11-24T20:01:41.447Z,96823.96
2017-11-24T20:04:07.791Z,96819.43
2017-11-24T20:06:34.218Z,96820.20
2017-11-24T20:09:00.618Z,96818.52
2017-11-24T20:11:27.370Z,96819.09
2017-11-24T20:13:54.582Z,96815.08
2017-11-24T20:16:21.290Z,96813.45
2017-11-24T20:18:48.132Z,96820.77
2017-11-24T20:21:14.748Z,96819.02
2017-11-24T20:23:41.384Z,96819.52
2017-11-24T20:26:08.029Z,96822.22
2017-11-24T20:28:34.754Z,96814.95
2017-11-24T20:31:01.307Z,96809.38
2017-11-24T20:33:28.005Z,96816.50
2017-11-24T20:35:54.233Z,96808.69
2017-11-24T20:38:20.712Z,96813.41
2017-11-24T20:41:00.062Z,96811.25
2017-11-24T20:43:26.717Z,96809.40
2017-11-24T20:45:53.312Z,96807.15
2017-11-24T20:48:19.883Z,96801.54
2017-11-24T20:50:46.699Z,96799.00
2017-11-24T20:53:13.624Z,96799.00
2017-11-24T20:55:40.212Z,96789.56
2017-11-24T20:58:06.710Z,96788.45
2017-11-24T21:00:33.222Z,96783.75
2017-11-24T21:02:59.830Z,96780.45
2017-11-24T21:05:26.485Z,96776.23
2017-11-24T21:07:54.336Z,96774.97
2017-11-24T21:10:20.745Z,96772.09
2017-11-24T21:12:47.357Z,96775.81
2017-11-24T21:15:13.894Z,96773.14
2017-11-24T21:17:47.634Z,96778.30
2017-11-24T21:20:14.061Z,96780.33
2017-11-24T21:22:40.685Z,96776.23
2017-11-24T21:25:07.581Z,96773.98
2017-11-24T21:27:33.966Z,96762.93
2017-11-24T21:30:00.444Z,96756.89
2017-11-24T21:32:27.014Z,96753.22
2017-11-24T21:34:53.544Z,96751.45
2017-11-24T21:37:20.178Z,96757.50
2017-11-24T21:39:46.765Z,96753.59
2017-11-24T21:42:15.168Z,96749.48
2017-11-24T21:44:41.651Z,96746.05
2017-11-24T21:47:08.279Z,96744.70
2017-11-24T21:49:34.756Z,96744.70
2017-11-24T21:52:01.401Z,96741.25
2017-11-24T21:54:28.209Z,96730.87
2017-11-24T21:56:54.935Z,96731.84
2017-11-24T21:59:21.308Z,96732.19
2017-11-24T22:01:47.891Z,96726.96
2017-11-24T22:04:14.216Z,96722.21
2017-11-24T22:06:40.919Z,96715.97
2017-11-24T22:09:07.322Z,96721.44
2017-11-24T22:11:34.916Z,96718.70
2017-11-24T22:14:01.808Z,96720.69
2017-11-24T22:16:28.585Z,96717.09
2017-11-24T22:18:55.184Z,96715.72
2017-11-24T22:21:22.071Z,96715.37
2017-11-24T22:23:48.431Z,96711.47
2017-11-24T22:26:14.924Z,96713.39
2017-11-24T22:28:41.562Z,96706.34
2017-11-24T22:31:08.163Z,96701.80
2017-11-24T22:33:34.839Z,96689.81
2017-11-24T22:36:01.208Z,96678.23
2017-11-24T22:38:27.611Z,96681.48
2017-11-24T22:40:54.067Z,96681.00
2017-11-24T22:43:20.561Z,96680.23
2017-11-24T22:45:47.149Z,96673.23
2017-11-24T22:48:13.681Z,96656.86
2017-11-24T22:50:40.172Z,96654.33
2017-11-24T22:53:06.818Z,96651.80
2017-11-24T22:55:33.633Z,96652.13
2017-11-24T22:58:00.096Z,96644.27
2017-11-24T23:00:26.611Z,96635.42
2017-11-24T23:02:53.326Z,96628.37
2017-11-24T23:05:20.220Z,96624.92
2017-11-24T23:07:47.779Z,96621.14
2017-11-24T23:10:14.272Z,96618.01
2017-11-24T23:12:40.783Z,96620.84
2017-11-24T23:15:07.342Z,96625.15
2017-11-24T23:17:33.712Z,96619.20
2017-11-24T23:20:00.181Z,96612.61
2017-11-24T23:22:27.870Z,96606.25
2017-11-24T23:24:54.433Z,96600.23
2017-11-24T23:27:21.077Z,96600.10
2017-11-24T23:29:49.762Z,96604.72
2017-11-24T23:32:16.348Z,96600.66
2017-11-24T23:34:42.810Z,96583.86
2017-11-24T23:37:09.361Z,96576.06
2017-11-24T23:39:36.068Z,96572.80
2017-11-24T23:42:02.639Z,96565.91
2017-11-24T23:44:29.122Z,96560.33
2017-11-24T23:46:55.666Z,96555.45
2017-11-24T23:49:22.687Z,96567.00
2017-11-24T23:51:49.254Z,96558.55
2017-11-24T23:54:15.913Z,96554.98
2017-11-24T23:56:42.592Z,96555.08
2017-11-24T23:59:09.075Z,96553.44
